sensor_id;sensor_type;location;lat;lon;timestamp;pressure;altitude;pressure_sealevel;temperature;humidity
47592;BME280;33317;33.356;-117.184;2023-06-22T00:01:42;99077.82;;;18.98;38.26
47592;BME280;33317;33.356;-117.184;2023-06-22T00:04:11;99072.46;;;19.70;38.34
47592;BME280;33317;33.356;-117.184;2023-06-22T00:06:39;99073.29;;;19.25;40.62
47592;BME280;33317;33.356;-117.184;2023-06-22T00:09:07;99070.77;;;18.75;41.27
47592;BME280;33317;33.356;-117.184;2023-06-22T00:11:36;99068.27;;;18.67;43.47
47592;BME280;33317;33.356;-117.184;2023-06-22T00:14:05;99067.49;;;19.27;42.35
47592;BME280;33317;33.356;-117.184;2023-06-22T00:16:34;99061.96;;;18.86;41.97
47592;BME280;33317;33.356;-117.184;2023-06-22T00:19:02;99061.64;;;18.51;42.32
47592;BME280;33317;33.356;-117.184;2023-06-22T00:21:30;99059.00;;;18.45;43.85
47592;BME280;33317;33.356;-117.184;2023-06-22T00:23:58;99051.66;;;19.33;41.61
47592;BME280;33317;33.356;-117.184;2023-06-22T00:26:27;99054.40;;;19.80;39.44
47592;BME280;33317;33.356;-117.184;2023-06-22T00:28:56;99055.07;;;19.29;39.73
47592;BME280;33317;33.356;-117.184;2023-06-22T00:31:24;99056.09;;;18.18;42.13
47592;BME280;33317;33.356;-117.184;2023-06-22T00:33:52;99056.35;;;18.36;42.20
47592;BME280;33317;33.356;-117.184;2023-06-22T00:36:21;99052.49;;;18.46;42.63
47592;BME280;33317;33.356;-117.184;2023-06-22T00:38:50;99052.87;;;18.25;42.60
47592;BME280;33317;33.356;-117.184;2023-06-22T00:41:18;99050.47;;;19.65;39.76
47592;BME280;33317;33.356;-117.184;2023-06-22T00:43:47;99047.46;;;18.88;41.91
47592;BME280;33317;33.356;-117.184;2023-06-22T00:46:15;99039.98;;;20.10;39.87
47592;BME280;33317;33.356;-117.184;2023-06-22T00:48:44;99041.05;;;18.99;40.71
47592;BME280;33317;33.356;-117.184;2023-06-22T00:51:12;99041.44;;;18.23;42.02
47592;BME280;33317;33.356;-117.184;2023-06-22T00:53:40;99038.41;;;18.59;43.58
47592;BME280;33317;33.356;-117.184;2023-06-22T00:56:10;99038.96;;;18.28;42.94
47592;BME280;33317;33.356;-117.184;2023-06-22T00:58:39;99044.53;;;17.94;43.91
47592;BME280;33317;33.356;-117.184;2023-06-22T01:01:07;99044.21;;;17.99;44.24
47592;BME280;33317;33.356;-117.184;2023-06-22T01:03:36;99038.40;;;17.98;43.23
47592;BME280;33317;33.356;-117.184;2023-06-22T01:06:09;99043.72;;;18.68;42.52
47592;BME280;33317;33.356;-117.184;2023-06-22T01:08:45;99046.15;;;19.33;40.94
47592;BME280;33317;33.356;-117.184;2023-06-22T01:11:18;99044.40;;;18.93;40.27
47592;BME280;33317;33.356;-117.184;2023-06-22T01:13:54;99045.54;;;19.21;40.03
47592;BME280;33317;33.356;-117.184;2023-06-22T01:16:26;99044.27;;;18.53;40.63
47592;BME280;33317;33.356;-117.184;2023-06-22T01:18:59;99048.91;;;18.99;40.36
47592;BME280;33317;33.356;-117.184;2023-06-22T01:21:30;99047.01;;;19.29;39.90
47592;BME280;33317;33.356;-117.184;2023-06-22T01:24:15;99048.13;;;19.31;38.77
47592;BME280;33317;33.356;-117.184;2023-06-22T01:27:00;99058.90;;;17.61;43.37
47592;BME280;33317;33.356;-117.184;2023-06-22T01:29:34;99061.77;;;17.04;44.69
47592;BME280;33317;33.356;-117.184;2023-06-22T01:32:05;99058.33;;;17.64;43.64
47592;BME280;33317;33.356;-117.184;2023-06-22T01:34:34;99053.48;;;19.82;39.22
47592;BME280;33317;33.356;-117.184;2023-06-22T01:37:04;99053.84;;;19.84;36.37
47592;BME280;33317;33.356;-117.184;2023-06-22T01:39:33;99055.59;;;21.33;35.77
47592;BME280;33317;33.356;-117.184;2023-06-22T01:42:03;99051.74;;;19.11;36.99
47592;BME280;33317;33.356;-117.184;2023-06-22T01:44:32;99058.41;;;20.71;35.96
47592;BME280;33317;33.356;-117.184;2023-06-22T01:47:02;99061.30;;;20.89;35.22
47592;BME280;33317;33.356;-117.184;2023-06-22T01:49:31;99060.46;;;19.80;37.77
47592;BME280;33317;33.356;-117.184;2023-06-22T01:51:59;99059.95;;;20.20;36.22
47592;BME280;33317;33.356;-117.184;2023-06-22T01:54:27;99060.05;;;21.36;34.86
47592;BME280;33317;33.356;-117.184;2023-06-22T01:56:56;99057.80;;;18.70;38.62
47592;BME280;33317;33.356;-117.184;2023-06-22T01:59:28;99057.59;;;20.35;36.81
47592;BME280;33317;33.356;-117.184;2023-06-22T02:02:04;99056.02;;;18.95;37.75
47592;BME280;33317;33.356;-117.184;2023-06-22T02:04:37;99057.76;;;20.84;34.29
47592;BME280;33317;33.356;-117.184;2023-06-22T02:07:15;99059.65;;;21.37;34.04
47592;BME280;33317;33.356;-117.184;2023-06-22T02:09:49;99067.27;;;20.60;35.25
47592;BME280;33317;33.356;-117.184;2023-06-22T02:12:23;99066.61;;;20.46;36.04
47592;BME280;33317;33.356;-117.184;2023-06-22T02:14:53;99069.66;;;19.89;38.30
47592;BME280;33317;33.356;-117.184;2023-06-22T02:17:22;99069.95;;;19.43;38.54
47592;BME280;33317;33.356;-117.184;2023-06-22T02:19:51;99072.37;;;20.76;36.04
47592;BME280;33317;33.356;-117.184;2023-06-22T02:22:19;99070.64;;;20.18;38.04
47592;BME280;33317;33.356;-117.184;2023-06-22T02:24:49;99078.96;;;20.70;37.38
47592;BME280;33317;33.356;-117.184;2023-06-22T02:27:17;99073.62;;;20.55;37.92
47592;BME280;33317;33.356;-117.184;2023-06-22T02:29:45;99074.93;;;19.42;39.74
47592;BME280;33317;33.356;-117.184;2023-06-22T02:32:14;99075.89;;;19.42;40.29
47592;BME280;33317;33.356;-117.184;2023-06-22T02:34:42;99077.16;;;17.59;44.60
47592;BME280;33317;33.356;-117.184;2023-06-22T02:37:11;99082.36;;;16.94;47.11
47592;BME280;33317;33.356;-117.184;2023-06-22T02:39:40;99080.45;;;17.35;47.43
47592;BME280;33317;33.356;-117.184;2023-06-22T02:42:08;99081.51;;;17.01;48.87
47592;BME280;33317;33.356;-117.184;2023-06-22T02:44:37;99079.48;;;17.28;48.40
47592;BME280;33317;33.356;-117.184;2023-06-22T02:47:05;99084.43;;;17.46;48.23
47592;BME280;33317;33.356;-117.184;2023-06-22T02:49:33;99084.01;;;17.69;47.78
47592;BME280;33317;33.356;-117.184;2023-06-22T02:52:02;99086.67;;;17.75;48.12
47592;BME280;33317;33.356;-117.184;2023-06-22T02:54:30;99092.43;;;16.93;50.69
47592;BME280;33317;33.356;-117.184;2023-06-22T02:56:59;99089.59;;;17.02;51.21
47592;BME280;33317;33.356;-117.184;2023-06-22T02:59:30;99091.93;;;16.03;55.05
47592;BME280;33317;33.356;-117.184;2023-06-22T03:01:59;99092.55;;;16.43;53.66
47592;BME280;33317;33.356;-117.184;2023-06-22T03:04:27;99095.06;;;16.17;55.29
47592;BME280;33317;33.356;-117.184;2023-06-22T03:06:55;99093.04;;;15.61;57.56
47592;BME280;33317;33.356;-117.184;2023-06-22T03:09:29;99097.11;;;16.10;56.31
47592;BME280;33317;33.356;-117.184;2023-06-22T03:11:57;99099.83;;;15.65;57.74
47592;BME280;33317;33.356;-117.184;2023-06-22T03:14:26;99100.22;;;15.73;57.69
47592;BME280;33317;33.356;-117.184;2023-06-22T03:16:55;99102.00;;;15.50;58.30
47592;BME280;33317;33.356;-117.184;2023-06-22T03:19:23;99104.78;;;15.52;58.42
47592;BME280;33317;33.356;-117.184;2023-06-22T03:21:51;99102.51;;;15.08;58.75
47592;BME280;33317;33.356;-117.184;2023-06-22T03:24:20;99101.11;;;15.29;58.52
47592;BME280;33317;33.356;-117.184;2023-06-22T03:26:48;99103.18;;;15.02;60.34
47592;BME280;33317;33.356;-117.184;2023-06-22T03:29:20;99104.44;;;14.97;59.70
47592;BME280;33317;33.356;-117.184;2023-06-22T03:31:52;99111.86;;;14.64;59.63
47592;BME280;33317;33.356;-117.184;2023-06-22T03:34:22;99113.94;;;13.81;61.73
47592;BME280;33317;33.356;-117.184;2023-06-22T03:36:51;99115.39;;;14.17;61.90
47592;BME280;33317;33.356;-117.184;2023-06-22T03:39:19;99119.08;;;13.40;64.49
47592;BME280;33317;33.356;-117.184;2023-06-22T03:41:50;99129.37;;;13.25;64.99
47592;BME280;33317;33.356;-117.184;2023-06-22T03:44:18;99130.41;;;13.76;63.59
47592;BME280;33317;33.356;-117.184;2023-06-22T03:46:49;99138.85;;;13.46;65.35
47592;BME280;33317;33.356;-117.184;2023-06-22T03:49:19;99131.59;;;13.73;63.74
47592;BME280;33317;33.356;-117.184;2023-06-22T03:51:48;99139.92;;;13.69;65.17
47592;BME280;33317;33.356;-117.184;2023-06-22T03:54:17;99134.95;;;13.95;63.54
47592;BME280;33317;33.356;-117.184;2023-06-22T03:56:46;99139.11;;;13.52;64.47
47592;BME280;33317;33.356;-117.184;2023-06-22T03:59:15;99140.41;;;13.44;65.48
47592;BME280;33317;33.356;-117.184;2023-06-22T04:01:43;99144.19;;;12.96;65.97
47592;BME280;33317;33.356;-117.184;2023-06-22T04:04:11;99144.48;;;13.16;64.89
47592;BME280;33317;33.356;-117.184;2023-06-22T04:06:41;99148.50;;;12.79;66.27
47592;BME280;33317;33.356;-117.184;2023-06-22T04:09:10;99151.33;;;13.08;66.06
47592;BME280;33317;33.356;-117.184;2023-06-22T04:11:38;99152.96;;;12.90;65.96
47592;BME280;33317;33.356;-117.184;2023-06-22T04:14:06;99159.84;;;12.61;67.29
47592;BME280;33317;33.356;-117.184;2023-06-22T04:16:36;99164.83;;;13.00;73.59
47592;BME280;33317;33.356;-117.184;2023-06-22T04:19:05;99165.16;;;12.77;71.31
47592;BME280;33317;33.356;-117.184;2023-06-22T04:21:33;99162.44;;;12.09;72.17
47592;BME280;33317;33.356;-117.184;2023-06-22T04:24:03;99164.72;;;11.81;76.06
47592;BME280;33317;33.356;-117.184;2023-06-22T04:26:31;99167.96;;;11.56;77.66
47592;BME280;33317;33.356;-117.184;2023-06-22T04:29:00;99169.09;;;11.67;75.94
47592;BME280;33317;33.356;-117.184;2023-06-22T04:31:31;99169.29;;;11.48;75.45
47592;BME280;33317;33.356;-117.184;2023-06-22T04:34:00;99170.39;;;11.47;76.13
47592;BME280;33317;33.356;-117.184;2023-06-22T04:36:29;99175.70;;;11.39;78.36
47592;BME280;33317;33.356;-117.184;2023-06-22T04:39:01;99177.10;;;11.77;77.62
47592;BME280;33317;33.356;-117.184;2023-06-22T04:41:29;99175.11;;;11.37;78.38
47592;BME280;33317;33.356;-117.184;2023-06-22T04:43:58;99181.97;;;11.30;76.95
47592;BME280;33317;33.356;-117.184;2023-06-22T04:46:27;99182.66;;;11.37;77.64
47592;BME280;33317;33.356;-117.184;2023-06-22T04:49:00;99180.60;;;11.24;75.76
47592;BME280;33317;33.356;-117.184;2023-06-22T04:51:29;99182.98;;;11.54;77.46
47592;BME280;33317;33.356;-117.184;2023-06-22T04:53:57;99189.51;;;11.02;78.63
47592;BME280;33317;33.356;-117.184;2023-06-22T04:56:27;99188.15;;;11.70;77.86
47592;BME280;33317;33.356;-117.184;2023-06-22T04:58:55;99181.20;;;11.94;76.24
47592;BME280;33317;33.356;-117.184;2023-06-22T05:01:25;99183.54;;;11.76;77.39
47592;BME280;33317;33.356;-117.184;2023-06-22T05:03:56;99185.42;;;11.58;79.10
47592;BME280;33317;33.356;-117.184;2023-06-22T05:06:26;99176.99;;;11.34;80.06
47592;BME280;33317;33.356;-117.184;2023-06-22T05:08:55;99180.30;;;11.37;80.73
47592;BME280;33317;33.356;-117.184;2023-06-22T05:11:26;99183.62;;;11.53;78.17
47592;BME280;33317;33.356;-117.184;2023-06-22T05:13:55;99177.89;;;11.38;76.97
47592;BME280;33317;33.356;-117.184;2023-06-22T05:16:24;99177.94;;;11.78;79.19
47592;BME280;33317;33.356;-117.184;2023-06-22T05:18:53;99163.82;;;15.82;61.61
47592;BME280;33317;33.356;-117.184;2023-06-22T05:21:24;99162.08;;;18.04;53.68
47592;BME280;33317;33.356;-117.184;2023-06-22T05:23:53;99161.31;;;19.92;48.82
47592;BME280;33317;33.356;-117.184;2023-06-22T05:26:25;99166.72;;;20.82;45.81
47592;BME280;33317;33.356;-117.184;2023-06-22T05:28:54;99164.96;;;21.24;43.57
47592;BME280;33317;33.356;-117.184;2023-06-22T05:31:22;99161.61;;;22.30;41.89
47592;BME280;33317;33.356;-117.184;2023-06-22T05:33:53;99155.84;;;22.65;40.74
47592;BME280;33317;33.356;-117.184;2023-06-22T05:36:22;99154.97;;;22.93;39.79
47592;BME280;33317;33.356;-117.184;2023-06-22T05:38:50;99157.15;;;23.33;39.07
47592;BME280;33317;33.356;-117.184;2023-06-22T05:41:18;99153.61;;;23.53;38.67
47592;BME280;33317;33.356;-117.184;2023-06-22T05:43:47;99147.96;;;23.82;38.22
47592;BME280;33317;33.356;-117.184;2023-06-22T05:46:15;99144.59;;;24.00;37.91
47592;BME280;33317;33.356;-117.184;2023-06-22T05:48:43;99147.52;;;23.66;37.62
47592;BME280;33317;33.356;-117.184;2023-06-22T05:51:12;99150.52;;;23.98;37.36
47592;BME280;33317;33.356;-117.184;2023-06-22T05:53:40;99146.67;;;24.03;36.89
47592;BME280;33317;33.356;-117.184;2023-06-22T05:56:09;99141.91;;;23.98;36.90
47592;BME280;33317;33.356;-117.184;2023-06-22T05:58:37;99143.96;;;23.67;36.91
47592;BME280;33317;33.356;-117.184;2023-06-22T06:01:05;99142.17;;;24.13;36.34
47592;BME280;33317;33.356;-117.184;2023-06-22T06:03:34;99134.66;;;24.55;36.08
47592;BME280;33317;33.356;-117.184;2023-06-22T06:06:02;99130.34;;;24.47;36.15
47592;BME280;33317;33.356;-117.184;2023-06-22T06:08:30;99135.55;;;24.40;35.86
47592;BME280;33317;33.356;-117.184;2023-06-22T06:10:59;99138.26;;;24.49;36.04
47592;BME280;33317;33.356;-117.184;2023-06-22T06:13:27;99142.68;;;24.62;35.82
47592;BME280;33317;33.356;-117.184;2023-06-22T06:15:55;99144.40;;;24.37;35.75
47592;BME280;33317;33.356;-117.184;2023-06-22T06:18:24;99141.39;;;24.65;35.45
47592;BME280;33317;33.356;-117.184;2023-06-22T06:20:52;99139.56;;;24.59;35.43
47592;BME280;33317;33.356;-117.184;2023-06-22T06:23:20;99142.60;;;24.66;35.61
47592;BME280;33317;33.356;-117.184;2023-06-22T06:25:48;99145.26;;;24.53;35.79
47592;BME280;33317;33.356;-117.184;2023-06-22T06:28:17;99150.80;;;24.79;35.51
47592;BME280;33317;33.356;-117.184;2023-06-22T06:30:45;99151.73;;;24.12;35.72
47592;BME280;33317;33.356;-117.184;2023-06-22T06:33:13;99153.44;;;24.76;35.50
47592;BME280;33317;33.356;-117.184;2023-06-22T06:35:42;99153.38;;;24.58;35.79
47592;BME280;33317;33.356;-117.184;2023-06-22T06:38:10;99153.95;;;24.32;35.81
47592;BME280;33317;33.356;-117.184;2023-06-22T06:40:39;99155.46;;;24.64;35.70
47592;BME280;33317;33.356;-117.184;2023-06-22T06:43:08;99159.18;;;24.67;35.61
47592;BME280;33317;33.356;-117.184;2023-06-22T06:45:41;99159.04;;;24.31;35.73
47592;BME280;33317;33.356;-117.184;2023-06-22T06:48:09;99160.09;;;24.72;35.59
47592;BME280;33317;33.356;-117.184;2023-06-22T06:50:38;99156.98;;;24.77;35.51
47592;BME280;33317;33.356;-117.184;2023-06-22T06:53:06;99151.92;;;24.26;35.49
47592;BME280;33317;33.356;-117.184;2023-06-22T06:55:34;99148.63;;;24.74;35.44
47592;BME280;33317;33.356;-117.184;2023-06-22T06:58:03;99150.05;;;24.48;35.45
47592;BME280;33317;33.356;-117.184;2023-06-22T07:00:31;99151.81;;;24.74;35.49
47592;BME280;33317;33.356;-117.184;2023-06-22T07:02:59;99157.99;;;24.94;34.91
47592;BME280;33317;33.356;-117.184;2023-06-22T07:05:27;99156.75;;;25.16;34.94
47592;BME280;33317;33.356;-117.184;2023-06-22T07:07:56;99153.91;;;25.19;34.87
47592;BME280;33317;33.356;-117.184;2023-06-22T07:10:24;99152.81;;;24.87;34.87
47592;BME280;33317;33.356;-117.184;2023-06-22T07:12:53;99152.51;;;25.04;34.71
47592;BME280;33317;33.356;-117.184;2023-06-22T07:15:21;99155.38;;;25.20;34.59
47592;BME280;33317;33.356;-117.184;2023-06-22T07:17:49;99153.61;;;25.06;34.47
47592;BME280;33317;33.356;-117.184;2023-06-22T07:20:18;99147.41;;;25.08;34.45
47592;BME280;33317;33.356;-117.184;2023-06-22T07:22:46;99143.25;;;25.39;34.11
47592;BME280;33317;33.356;-117.184;2023-06-22T07:25:15;99144.24;;;25.42;33.79
47592;BME280;33317;33.356;-117.184;2023-06-22T07:27:46;99143.69;;;25.77;33.70
47592;BME280;33317;33.356;-117.184;2023-06-22T07:30:15;99141.24;;;25.83;33.68
47592;BME280;33317;33.356;-117.184;2023-06-22T07:32:43;99141.25;;;26.09;33.37
47592;BME280;33317;33.356;-117.184;2023-06-22T07:35:11;99147.99;;;26.22;33.24
47592;BME280;33317;33.356;-117.184;2023-06-22T07:37:39;99156.48;;;26.11;33.12
47592;BME280;33317;33.356;-117.184;2023-06-22T07:40:09;99155.81;;;26.25;33.22
47592;BME280;33317;33.356;-117.184;2023-06-22T07:42:38;99157.95;;;26.29;32.82
47592;BME280;33317;33.356;-117.184;2023-06-22T07:45:07;99156.39;;;26.54;32.81
47592;BME280;33317;33.356;-117.184;2023-06-22T07:47:36;99154.09;;;26.49;32.80
47592;BME280;33317;33.356;-117.184;2023-06-22T07:50:05;99145.22;;;26.62;32.75
47592;BME280;33317;33.356;-117.184;2023-06-22T07:52:33;99139.90;;;26.34;32.74
47592;BME280;33317;33.356;-117.184;2023-06-22T07:55:02;99138.99;;;26.64;32.56
47592;BME280;33317;33.356;-117.184;2023-06-22T07:57:31;99140.27;;;26.32;32.63
47592;BME280;33317;33.356;-117.184;2023-06-22T07:59:59;99133.05;;;26.32;32.57
47592;BME280;33317;33.356;-117.184;2023-06-22T08:02:28;99131.84;;;26.54;32.44
47592;BME280;33317;33.356;-117.184;2023-06-22T08:04:56;99125.24;;;26.59;32.51
47592;BME280;33317;33.356;-117.184;2023-06-22T08:07:24;99116.77;;;26.33;32.31
47592;BME280;33317;33.356;-117.184;2023-06-22T08:09:52;99115.61;;;26.32;32.38
47592;BME280;33317;33.356;-117.184;2023-06-22T08:12:21;99112.78;;;26.42;32.33
47592;BME280;33317;33.356;-117.184;2023-06-22T08:14:49;99110.27;;;26.60;32.44
47592;BME280;33317;33.356;-117.184;2023-06-22T08:17:17;99108.17;;;26.60;32.45
47592;BME280;33317;33.356;-117.184;2023-06-22T08:19:46;99110.28;;;26.75;32.50
47592;BME280;33317;33.356;-117.184;2023-06-22T08:22:15;99113.20;;;26.54;32.50
47592;BME280;33317;33.356;-117.184;2023-06-22T08:24:43;99106.45;;;26.73;32.58
47592;BME280;33317;33.356;-117.184;2023-06-22T08:27:11;99104.32;;;26.71;32.53
47592;BME280;33317;33.356;-117.184;2023-06-22T08:29:40;99110.23;;;26.29;32.80
47592;BME280;33317;33.356;-117.184;2023-06-22T08:32:09;99112.40;;;26.40;32.65
47592;BME280;33317;33.356;-117.184;2023-06-22T08:34:38;99110.70;;;26.60;32.66
47592;BME280;33317;33.356;-117.184;2023-06-22T08:37:06;99110.83;;;26.52;32.43
47592;BME280;33317;33.356;-117.184;2023-06-22T08:39:34;99110.25;;;26.06;32.66
47592;BME280;33317;33.356;-117.184;2023-06-22T08:42:03;99113.62;;;26.74;32.46
47592;BME280;33317;33.356;-117.184;2023-06-22T08:44:32;99114.97;;;26.44;32.46
47592;BME280;33317;33.356;-117.184;2023-06-22T08:47:00;99119.17;;;26.50;32.39
47592;BME280;33317;33.356;-117.184;2023-06-22T08:49:34;99124.99;;;26.26;32.69
47592;BME280;33317;33.356;-117.184;2023-06-22T08:52:02;99124.54;;;26.48;32.63
47592;BME280;33317;33.356;-117.184;2023-06-22T08:54:30;99119.34;;;26.66;32.46
47592;BME280;33317;33.356;-117.184;2023-06-22T08:56:59;99110.75;;;26.44;32.47
47592;BME280;33317;33.356;-117.184;2023-06-22T08:59:27;99110.53;;;26.62;32.50
47592;BME280;33317;33.356;-117.184;2023-06-22T09:01:56;99106.47;;;26.77;32.38
47592;BME280;33317;33.356;-117.184;2023-06-22T09:04:24;99102.46;;;26.32;32.35
47592;BME280;33317;33.356;-117.184;2023-06-22T09:06:52;99094.49;;;26.52;32.51
47592;BME280;33317;33.356;-117.184;2023-06-22T09:09:21;99090.57;;;26.59;32.37
47592;BME280;33317;33.356;-117.184;2023-06-22T09:11:49;99084.64;;;26.80;32.41
47592;BME280;33317;33.356;-117.184;2023-06-22T09:14:18;99085.37;;;26.59;32.60
47592;BME280;33317;33.356;-117.184;2023-06-22T09:16:46;99092.56;;;26.54;32.41
47592;BME280;33317;33.356;-117.184;2023-06-22T09:19:15;99100.79;;;26.77;32.47
47592;BME280;33317;33.356;-117.184;2023-06-22T09:21:43;99101.81;;;26.57;32.65
47592;BME280;33317;33.356;-117.184;2023-06-22T09:24:11;99099.07;;;26.28;32.74
47592;BME280;33317;33.356;-117.184;2023-06-22T09:26:40;99096.16;;;26.04;32.73
47592;BME280;33317;33.356;-117.184;2023-06-22T09:29:08;99094.12;;;26.57;32.64
47592;BME280;33317;33.356;-117.184;2023-06-22T09:31:36;99088.90;;;26.61;32.54
47592;BME280;33317;33.356;-117.184;2023-06-22T09:34:05;99089.44;;;26.53;32.60
47592;BME280;33317;33.356;-117.184;2023-06-22T09:36:33;99098.79;;;26.17;32.76
47592;BME280;33317;33.356;-117.184;2023-06-22T09:39:02;99099.29;;;26.34;32.75
47592;BME280;33317;33.356;-117.184;2023-06-22T09:41:30;99100.30;;;26.40;32.77
47592;BME280;33317;33.356;-117.184;2023-06-22T09:43:58;99094.62;;;26.41;32.72
47592;BME280;33317;33.356;-117.184;2023-06-22T09:46:27;99089.85;;;26.58;32.55
47592;BME280;33317;33.356;-117.184;2023-06-22T09:48:55;99095.08;;;26.51;32.54
47592;BME280;33317;33.356;-117.184;2023-06-22T09:51:24;99095.80;;;26.55;32.53
47592;BME280;33317;33.356;-117.184;2023-06-22T09:53:53;99101.26;;;26.65;32.42
47592;BME280;33317;33.356;-117.184;2023-06-22T09:56:21;99093.67;;;26.73;32.43
47592;BME280;33317;33.356;-117.184;2023-06-22T09:58:49;99103.61;;;26.44;32.45
47592;BME280;33317;33.356;-117.184;2023-06-22T10:01:18;99112.24;;;26.46;32.46
47592;BME280;33317;33.356;-117.184;2023-06-22T10:03:46;99107.23;;;26.66;32.47
47592;BME280;33317;33.356;-117.184;2023-06-22T10:06:14;99100.40;;;26.68;32.44
47592;BME280;33317;33.356;-117.184;2023-06-22T10:08:43;99096.93;;;26.62;32.54
47592;BME280;33317;33.356;-117.184;2023-06-22T10:11:11;99103.95;;;26.31;32.68
47592;BME280;33317;33.356;-117.184;2023-06-22T10:13:39;99110.87;;;26.33;32.86
47592;BME280;33317;33.356;-117.184;2023-06-22T10:16:08;99104.42;;;26.48;32.68
47592;BME280;33317;33.356;-117.184;2023-06-22T10:18:36;99104.42;;;26.25;32.65
47592;BME280;33317;33.356;-117.184;2023-06-22T10:21:05;99105.24;;;26.36;32.80
47592;BME280;33317;33.356;-117.184;2023-06-22T10:23:33;99104.61;;;26.25;32.93
47592;BME280;33317;33.356;-117.184;2023-06-22T10:26:01;99111.51;;;26.28;32.80
47592;BME280;33317;33.356;-117.184;2023-06-22T10:28:30;99104.34;;;26.28;32.78
47592;BME280;33317;33.356;-117.184;2023-06-22T10:30:58;99094.83;;;26.36;32.67
47592;BME280;33317;33.356;-117.184;2023-06-22T10:33:27;99103.66;;;25.93;32.86
47592;BME280;33317;33.356;-117.184;2023-06-22T10:35:55;99100.55;;;26.09;32.96
47592;BME280;33317;33.356;-117.184;2023-06-22T10:38:23;99092.75;;;26.10;32.94
47592;BME280;33317;33.356;-117.184;2023-06-22T10:40:52;99098.67;;;26.06;32.96
47592;BME280;33317;33.356;-117.184;2023-06-22T10:43:20;99092.85;;;26.24;33.01
47592;BME280;33317;33.356;-117.184;2023-06-22T10:45:49;99094.46;;;26.15;32.83
47592;BME280;33317;33.356;-117.184;2023-06-22T10:48:17;99095.55;;;25.91;32.95
47592;BME280;33317;33.356;-117.184;2023-06-22T10:50:46;99091.75;;;26.18;32.91
47592;BME280;33317;33.356;-117.184;2023-06-22T10:53:15;99090.43;;;26.27;32.77
47592;BME280;33317;33.356;-117.184;2023-06-22T10:55:44;99087.08;;;26.13;32.93
47592;BME280;33317;33.356;-117.184;2023-06-22T10:58:12;99088.78;;;25.95;33.12
47592;BME280;33317;33.356;-117.184;2023-06-22T11:00:40;99084.05;;;26.07;33.01
47592;BME280;33317;33.356;-117.184;2023-06-22T11:03:08;99070.43;;;26.35;32.92
47592;BME280;33317;33.356;-117.184;2023-06-22T11:05:37;99064.66;;;26.08;32.96
47592;BME280;33317;33.356;-117.184;2023-06-22T11:08:05;99074.87;;;26.01;33.25
47592;BME280;33317;33.356;-117.184;2023-06-22T11:10:34;99071.38;;;25.54;33.57
47592;BME280;33317;33.356;-117.184;2023-06-22T11:13:02;99076.59;;;25.91;33.45
47592;BME280;33317;33.356;-117.184;2023-06-22T11:15:30;99080.59;;;25.38;33.84
47592;BME280;33317;33.356;-117.184;2023-06-22T11:17:59;99070.98;;;25.40;33.80
47592;BME280;33317;33.356;-117.184;2023-06-22T11:20:27;99065.27;;;25.35;33.74
47592;BME280;33317;33.356;-117.184;2023-06-22T11:22:56;99063.08;;;25.67;33.64
47592;BME280;33317;33.356;-117.184;2023-06-22T11:25:24;99071.61;;;25.42;33.96
47592;BME280;33317;33.356;-117.184;2023-06-22T11:27:53;99064.99;;;25.47;33.63
47592;BME280;33317;33.356;-117.184;2023-06-22T11:30:21;99069.08;;;25.45;33.85
47592;BME280;33317;33.356;-117.184;2023-06-22T11:32:49;99064.78;;;25.51;33.80
47592;BME280;33317;33.356;-117.184;2023-06-22T11:35:18;99066.56;;;25.43;33.89
47592;BME280;33317;33.356;-117.184;2023-06-22T11:37:46;99059.37;;;25.39;33.87
47592;BME280;33317;33.356;-117.184;2023-06-22T11:40:15;99065.62;;;25.48;33.54
47592;BME280;33317;33.356;-117.184;2023-06-22T11:42:43;99062.37;;;24.89;34.38
47592;BME280;33317;33.356;-117.184;2023-06-22T11:45:12;99067.23;;;25.17;33.95
47592;BME280;33317;33.356;-117.184;2023-06-22T11:47:40;99078.83;;;25.36;33.80
47592;BME280;33317;33.356;-117.184;2023-06-22T11:50:09;99076.38;;;25.11;34.09
47592;BME280;33317;33.356;-117.184;2023-06-22T11:52:37;99076.61;;;24.98;34.22
47592;BME280;33317;33.356;-117.184;2023-06-22T11:55:08;99086.09;;;25.19;33.95
47592;BME280;33317;33.356;-117.184;2023-06-22T11:57:38;99080.54;;;25.23;33.94
47592;BME280;33317;33.356;-117.184;2023-06-22T12:00:07;99082.42;;;25.45;33.92
47592;BME280;33317;33.356;-117.184;2023-06-22T12:02:35;99082.84;;;24.91;34.33
47592;BME280;33317;33.356;-117.184;2023-06-22T12:05:04;99082.67;;;25.33;34.05
47592;BME280;33317;33.356;-117.184;2023-06-22T12:07:33;99078.94;;;25.57;33.79
47592;BME280;33317;33.356;-117.184;2023-06-22T12:10:01;99075.86;;;25.61;33.75
47592;BME280;33317;33.356;-117.184;2023-06-22T12:12:29;99077.84;;;25.42;33.92
47592;BME280;33317;33.356;-117.184;2023-06-22T12:14:58;99083.72;;;25.48;33.81
47592;BME280;33317;33.356;-117.184;2023-06-22T12:17:26;99083.71;;;25.36;33.95
47592;BME280;33317;33.356;-117.184;2023-06-22T12:19:55;99076.21;;;25.40;33.87
47592;BME280;33317;33.356;-117.184;2023-06-22T12:22:23;99082.42;;;25.43;33.82
47592;BME280;33317;33.356;-117.184;2023-06-22T12:24:51;99088.56;;;25.43;33.83
47592;BME280;33317;33.356;-117.184;2023-06-22T12:27:20;99091.29;;;25.08;34.20
47592;BME280;33317;33.356;-117.184;2023-06-22T12:29:48;99103.42;;;25.55;33.41
47592;BME280;33317;33.356;-117.184;2023-06-22T12:32:17;99094.69;;;25.26;33.62
47592;BME280;33317;33.356;-117.184;2023-06-22T12:34:45;99111.98;;;25.63;33.52
47592;BME280;33317;33.356;-117.184;2023-06-22T12:37:14;99107.65;;;25.86;33.04
47592;BME280;33317;33.356;-117.184;2023-06-22T12:39:42;99106.69;;;25.79;33.35